createdAt,value
2022-08-14T00:03:42.815Z,61
2022-08-14T00:13:43.296Z,62
2022-08-14T00:23:53.885Z,63
2022-08-14T00:33:59.884Z,62
2022-08-14T00:44:08.097Z,62
2022-08-14T00:54:11.310Z,62
2022-08-14T01:04:06.626Z,62
2022-08-14T01:14:18.579Z,61
2022-08-14T01:24:23.106Z,62
2022-08-14T01:35:16.267Z,64
2022-08-14T01:44:35.179Z,64
2022-08-14T02:15:00.283Z,66
2022-08-14T02:25:09.520Z,66
2022-08-14T02:35:04.342Z,66
2022-08-14T02:45:02.381Z,67
2022-08-14T02:55:11.701Z,68
2022-08-14T03:05:20.196Z,71
2022-08-14T03:15:21.033Z,72
2022-08-14T03:35:37.296Z,70
2022-08-14T03:45:38.576Z,69
2022-08-14T04:05:50.407Z,65
2022-08-14T04:15:56.046Z,66
2022-08-14T04:36:00.352Z,66
2022-08-14T04:46:01.828Z,65
2022-08-14T04:56:30.300Z,61
2022-08-14T05:06:34.839Z,61
2022-08-14T05:16:22.585Z,64
2022-08-14T05:26:31.088Z,61
2022-08-14T06:06:48.766Z,47
2022-08-14T06:16:48.087Z,43
2022-08-14T06:27:04.144Z,40
2022-08-14T06:47:10.354Z,39
2022-08-14T06:57:18.280Z,37
2022-08-14T07:07:29.348Z,35
2022-08-14T07:17:36.535Z,37
2022-08-14T07:27:45.132Z,34
2022-08-14T07:37:54.151Z,32
2022-08-14T07:48:04.928Z,31
2022-08-14T07:58:30.578Z,31
2022-08-14T08:08:26.707Z,29
2022-08-14T08:18:31.290Z,28
2022-08-14T08:28:52.872Z,29
2022-08-14T08:39:15.919Z,29
2022-08-14T08:58:51.939Z,28
2022-08-14T09:08:52.547Z,29
2022-08-14T09:19:19.510Z,29
2022-08-14T09:29:15.318Z,29
2022-08-14T09:39:21.281Z,29
2022-08-14T09:49:21.188Z,28
2022-08-14T09:59:18.909Z,27
2022-08-14T10:09:28.667Z,26
2022-08-14T10:19:37.080Z,26
2022-08-14T10:29:44.507Z,26
2022-08-14T10:40:01.501Z,25
2022-08-14T10:50:02.138Z,25
2022-08-14T11:00:05.683Z,24
2022-08-14T11:10:25.376Z,30
2022-08-14T11:20:43.806Z,34
2022-08-14T11:30:49.682Z,36
2022-08-14T11:41:04.280Z,37
2022-08-14T11:50:51.074Z,35
2022-08-14T12:11:17.573Z,33
2022-08-14T12:41:16.390Z,27
2022-08-14T12:51:56.896Z,28
2022-08-14T13:01:27.739Z,28
2022-08-14T13:11:23.866Z,27
2022-08-14T13:21:58.430Z,27
2022-08-14T13:41:34.646Z,26
2022-08-14T13:51:41.751Z,26
2022-08-14T14:01:44.270Z,28
2022-08-14T14:11:46.995Z,29
2022-08-14T14:21:50.947Z,29
2022-08-14T14:31:59.839Z,30
2022-08-14T14:42:06.226Z,29
2022-08-14T14:52:15.355Z,28
2022-08-14T15:02:10.539Z,29
2022-08-14T15:12:16.326Z,29
2022-08-14T15:22:27.369Z,29
2022-08-14T15:32:31.629Z,28
2022-08-14T15:42:34.147Z,28
2022-08-14T15:52:38.654Z,40
2022-08-14T16:03:11.348Z,44
2022-08-14T16:12:48.411Z,51
2022-08-14T16:22:57.885Z,52
2022-08-14T16:32:55.654Z,53
2022-08-14T16:43:03.818Z,56
2022-08-14T16:53:10.994Z,55
2022-08-14T17:03:11.601Z,56
2022-08-14T17:13:19.622Z,56
2022-08-14T17:23:18.863Z,56
2022-08-14T17:33:23.646Z,54
2022-08-14T17:44:03.054Z,57
2022-08-14T18:03:45.050Z,56
2022-08-14T18:13:50.650Z,55
2022-08-14T18:23:42.293Z,55
2022-08-14T18:33:44.604Z,56
2022-08-14T19:04:14.849Z,54
2022-08-14T19:16:53.963Z,56
2022-08-14T19:24:28.111Z,57
2022-08-14T19:34:07.486Z,58
2022-08-14T19:44:15.138Z,56
2022-08-14T19:54:23.411Z,55
2022-08-14T20:04:45.662Z,54
2022-08-14T20:14:38.345Z,53
2022-08-14T20:24:41.053Z,52
2022-08-14T20:34:58.128Z,52
2022-08-14T20:44:59.156Z,53
2022-08-14T20:55:24.286Z,53
2022-08-14T21:05:33.644Z,52
2022-08-14T21:25:40.106Z,51
2022-08-14T21:35:47.288Z,52
2022-08-14T21:45:51.798Z,53
2022-08-14T21:55:47.999Z,54
2022-08-14T22:05:51.896Z,55
2022-08-14T22:16:01.967Z,56
2022-08-14T22:26:30.510Z,58
2022-08-14T22:36:09.506Z,58
2022-08-14T22:46:37.963Z,60
2022-08-14T22:56:46.165Z,61
2022-08-14T23:07:01.702Z,63
2022-08-14T23:16:46.967Z,62
2022-08-14T23:26:50.615Z,61
2022-08-14T23:36:53.820Z,59
2022-08-14T23:56:45.614Z,57
